Time;durP1;ratioP1;P1;durP2;ratioP2;P2;SDS_P1;SDS_P2;PMS_P1;PMS_P2;Temp;Humidity;BMP_temperature;BMP_pressure;BME280_temperature;BME280_humidity;BME280_pressure;Samples;Min_cycle;Max_cycle;Signal;HPM_P1;HPM_P2
2023/08/21 00:00:41;;;;;;;5.40;2.60;;;;;;;26.46;41.69;98964.53;4842549;29;20185;-86
2023/08/21 00:03:08;;;;;;;3.50;2.42;;;;;;;26.42;41.48;98962.38;4844825;29;20272;-86
2023/08/21 00:05:35;;;;;;;4.47;2.80;;;;;;;26.41;41.82;98961.56;4814034;29;20194;-86
2023/08/21 00:08:02;;;;;;;4.23;2.20;;;;;;;26.37;41.73;98970.16;4824989;29;20198;-86
2023/08/21 00:10:30;;;;;;;6.85;3.90;;;;;;;26.34;41.59;98965.16;4832085;29;20520;-86
2023/08/21 00:12:57;;;;;;;9.90;3.23;;;;;;;26.38;42.05;98969.16;4810722;29;20527;-86
2023/08/21 00:15:23;;;;;;;6.97;2.57;;;;;;;26.39;41.89;98970.84;4810484;29;20186;-86
2023/08/21 00:17:50;;;;;;;8.75;2.95;;;;;;;26.43;41.57;98962.22;4810695;29;20186;-85
2023/08/21 00:20:16;;;;;;;6.03;3.87;;;;;;;26.51;40.45;98961.28;4810657;29;20190;-85
2023/08/21 00:22:43;;;;;;;8.77;4.30;;;;;;;26.68;40.12;98949.31;4826256;29;20186;-85
2023/08/21 00:25:09;;;;;;;7.03;3.40;;;;;;;26.88;39.41;98961.19;4833651;29;20595;-85
2023/08/21 00:27:36;;;;;;;6.30;3.37;;;;;;;27.11;39.04;98956.50;4826106;29;20190;-84
2023/08/21 00:30:03;;;;;;;5.27;3.10;;;;;;;27.28;38.93;98957.09;4810268;29;20194;-85
2023/08/21 00:32:29;;;;;;;5.73;2.50;;;;;;;27.38;38.15;98961.13;4809866;29;20246;-85
2023/08/21 00:34:56;;;;;;;7.40;3.73;;;;;;;27.56;37.86;98952.66;4810213;29;20190;-85
2023/08/21 00:37:23;;;;;;;5.45;2.95;;;;;;;27.69;37.70;98954.63;4825782;29;20225;-85
2023/08/21 00:39:50;;;;;;;6.10;3.08;;;;;;;27.82;37.29;98955.56;4825001;29;20288;-86
2023/08/21 00:42:16;;;;;;;6.07;2.85;;;;;;;27.92;37.44;98957.91;4812114;29;20197;-85
2023/08/21 00:44:43;;;;;;;4.78;2.67;;;;;;;28.00;36.82;98955.09;4810123;29;20546;-85
2023/08/21 00:47:09;;;;;;;7.53;3.10;;;;;;;28.02;36.69;98950.34;4825191;29;20640;-86
2023/08/21 00:49:38;;;;;;;4.53;2.20;;;;;;;28.09;36.47;98953.97;4819444;29;20188;-85
2023/08/21 00:52:12;;;;;;;6.03;2.20;;;;;;;28.15;36.80;98958.53;4809967;29;20204;-85
2023/08/21 00:54:38;;;;;;;7.37;3.00;;;;;;;28.10;37.46;98955.59;4825016;29;20273;-85
2023/08/21 00:57:05;;;;;;;9.57;2.97;;;;;;;28.15;37.80;98958.53;4815331;29;20594;-85
2023/08/21 00:59:33;;;;;;;8.38;2.97;;;;;;;28.25;37.78;98963.59;4810321;29;20652;-85
2023/08/21 01:02:00;;;;;;;6.88;3.60;;;;;;;28.27;37.98;98951.59;4825721;29;20648;-85
2023/08/21 01:04:26;;;;;;;4.70;2.80;;;;;;;28.18;38.30;98955.47;4809770;29;20212;-85
2023/08/21 01:06:53;;;;;;;7.82;3.15;;;;;;;28.27;38.33;98959.69;4809955;29;20616;-85
2023/08/21 01:09:35;;;;;;;5.10;2.90;;;;;;;28.24;38.84;98962.75;4809827;29;20280;-84
2023/08/21 01:12:16;;;;;;;6.32;3.47;;;;;;;28.23;39.16;98960.25;4809692;29;20241;-85
2023/08/21 01:15:03;;;;;;;7.60;3.67;;;;;;;28.30;39.30;98964.66;4810061;29;20671;-85
2023/08/21 01:17:30;;;;;;;7.22;3.65;;;;;;;28.24;39.55;98964.63;4818326;29;20247;-85
2023/08/21 01:19:58;;;;;;;4.75;3.10;;;;;;;28.23;39.65;98966.47;4824647;29;20535;-85
2023/08/21 01:22:35;;;;;;;10.07;3.85;;;;;;;28.23;39.65;98963.78;4825303;29;20186;-85
2023/08/21 01:25:02;;;;;;;5.95;3.30;;;;;;;28.28;39.90;98965.88;4809493;29;20621;-85
2023/08/21 01:27:29;;;;;;;6.30;3.70;;;;;;;28.06;40.36;98964.28;4825946;29;20204;-85
2023/08/21 01:29:55;;;;;;;11.70;3.50;;;;;;;28.08;40.46;98963.06;4825102;29;20629;-85
2023/08/21 01:32:34;;;;;;;5.45;3.30;;;;;;;28.10;40.57;98954.75;4808958;29;20600;-85
2023/08/21 01:35:02;;;;;;;8.32;3.63;;;;;;;28.07;40.70;98961.38;4808955;29;20209;-85
2023/08/21 01:37:30;;;;;;;7.45;2.97;;;;;;;28.10;40.55;98961.00;4825236;29;20213;-86
2023/08/21 01:39:59;;;;;;;8.80;3.75;;;;;;;28.16;40.46;98962.06;4825226;29;20561;-85
2023/08/21 01:42:26;;;;;;;6.53;3.67;;;;;;;28.15;40.56;98961.22;4824918;29;20205;-86
2023/08/21 01:44:52;;;;;;;5.57;3.35;;;;;;;28.20;40.79;98961.47;4825054;29;20723;-85
2023/08/21 01:47:19;;;;;;;6.45;3.58;;;;;;;28.26;40.35;98968.78;4825440;29;20559;-85
2023/08/21 01:49:46;;;;;;;8.73;4.07;;;;;;;28.28;40.51;98965.88;4809073;29;20190;-86
2023/08/21 01:52:13;;;;;;;6.10;3.30;;;;;;;28.25;40.73;98975.19;4825184;29;20200;-85
2023/08/21 01:54:42;;;;;;;5.32;3.38;;;;;;;28.17;40.64;98971.84;4825245;29;20194;-85
2023/08/21 01:57:08;;;;;;;8.80;3.50;;;;;;;28.12;40.70;98971.59;4824086;29;20210;-84
2023/08/21 01:59:35;;;;;;;6.97;3.03;;;;;;;28.11;40.97;98968.06;4825109;29;20197;-85
2023/08/21 02:02:02;;;;;;;9.73;3.33;;;;;;;28.14;41.20;98964.13;4824776;29;20221;-85
2023/08/21 02:04:29;;;;;;;6.65;3.78;;;;;;;28.15;40.83;98955.00;4808405;29;20250;-84
2023/08/21 02:06:55;;;;;;;6.65;3.50;;;;;;;28.19;40.96;98962.53;4808425;29;20189;-85
2023/08/21 02:09:22;;;;;;;6.35;3.75;;;;;;;28.27;41.00;98966.94;4824755;29;20184;-85
2023/08/21 02:11:48;;;;;;;9.25;3.70;;;;;;;28.11;41.45;98954.59;4824614;29;20658;-85
2023/08/21 02:14:15;;;;;;;6.90;3.50;;;;;;;28.22;41.26;98964.81;4824539;29;20269;-85
2023/08/21 02:16:41;;;;;;;6.03;3.42;;;;;;;28.30;41.03;98964.66;4825058;29;20241;-84
2023/08/21 02:19:08;;;;;;;7.03;3.75;;;;;;;28.25;40.93;98961.72;4808822;29;20189;-85
2023/08/21 02:21:36;;;;;;;9.50;4.40;;;;;;;28.12;41.35;98958.13;4824496;29;20193;-85
2023/08/21 02:24:03;;;;;;;8.00;4.03;;;;;;;28.30;40.80;98961.94;4812056;29;20604;-85
2023/08/21 02:26:30;;;;;;;5.13;3.50;;;;;;;28.36;40.53;98966.56;4824578;29;20185;-85
2023/08/21 02:28:57;;;;;;;7.38;3.25;;;;;;;28.27;40.86;98970.47;4808441;29;20258;-85
2023/08/21 02:31:24;;;;;;;9.02;3.10;;;;;;;28.32;40.35;98964.47;4824379;29;20198;-86
2023/08/21 02:33:51;;;;;;;6.80;3.58;;;;;;;28.24;40.54;98957.38;4808041;29;20275;-85
2023/08/21 02:36:17;;;;;;;6.20;3.08;;;;;;;28.34;40.38;98959.69;4824281;29;20225;-84
2023/08/21 02:38:44;;;;;;;8.20;3.55;;;;;;;28.26;40.04;98965.25;4821517;29;20568;-86
2023/08/21 02:41:10;;;;;;;6.85;3.25;;;;;;;28.27;39.98;98961.53;4824637;29;20189;-84
2023/08/21 02:43:37;;;;;;;11.00;4.32;;;;;;;28.27;40.31;98956.97;4824384;29;20209;-85
2023/08/21 02:46:04;;;;;;;5.43;3.05;;;;;;;28.34;40.12;98963.25;4824275;29;20197;-85
2023/08/21 02:48:31;;;;;;;5.28;3.38;;;;;;;28.25;40.04;98964.41;4824335;29;20193;-86
2023/08/21 02:50:57;;;;;;;9.20;3.92;;;;;;;28.29;39.72;98960.31;4824137;29;20278;-86
2023/08/21 02:53:24;;;;;;;5.57;2.75;;;;;;;28.31;39.60;98960.94;4824296;29;20272;-85
2023/08/21 02:55:50;;;;;;;6.20;3.90;;;;;;;28.24;39.64;98959.22;4823146;29;20541;-85
2023/08/21 02:58:17;;;;;;;6.47;3.20;;;;;;;28.22;39.95;98962.13;4807972;29;20219;-86
2023/08/21 03:00:44;;;;;;;6.63;3.78;;;;;;;28.16;39.66;98965.59;4824049;29;20201;-86
2023/08/21 03:03:11;;;;;;;4.95;2.97;;;;;;;28.12;40.10;98967.00;4824126;29;20657;-86
2023/08/21 03:05:38;;;;;;;6.70;3.28;;;;;;;28.03;39.87;98965.50;4840993;29;20177;-85
2023/08/21 03:08:04;;;;;;;7.30;3.25;;;;;;;28.15;40.14;98958.53;4828562;29;20229;-86
2023/08/21 03:10:33;;;;;;;5.93;3.10;;;;;;;28.21;40.25;98962.31;4823889;29;20268;-85
2023/08/21 03:13:00;;;;;;;5.10;2.70;;;;;;;28.15;40.48;98952.31;4826261;29;20185;-84
2023/08/21 03:15:27;;;;;;;4.75;2.67;;;;;;;28.07;40.33;98961.38;4827400;29;20603;-84
2023/08/21 03:17:53;;;;;;;5.15;2.97;;;;;;;28.18;40.18;98952.75;4827365;29;20186;-85
2023/08/21 03:20:19;;;;;;;5.10;2.83;;;;;;;28.14;40.46;98962.28;4827312;29;20664;-85
2023/08/21 03:22:46;;;;;;;6.72;3.20;;;;;;;28.13;40.49;98976.78;4827463;29;20186;-85
2023/08/21 03:25:13;;;;;;;6.55;2.97;;;;;;;28.23;40.02;98977.25;4827190;29;20205;-85
2023/08/21 03:27:44;;;;;;;7.35;4.00;;;;;;;28.27;39.77;98973.16;4827439;29;20344;-85
2023/08/21 03:30:14;;;;;;;7.13;3.28;;;;;;;28.31;40.08;98979.81;4827775;29;20283;-85
2023/08/21 03:32:40;;;;;;;5.03;3.25;;;;;;;28.25;40.26;98982.47;4827111;29;20660;-84
2023/08/21 03:35:07;;;;;;;5.63;3.35;;;;;;;28.24;40.02;98978.09;4826870;29;20329;-85
2023/08/21 03:37:33;;;;;;;6.47;3.30;;;;;;;28.21;40.26;98978.50;4827703;29;20217;-85
2023/08/21 03:40:05;;;;;;;5.38;3.38;;;;;;;28.17;40.40;98971.84;4827161;29;20181;-84
2023/08/21 03:42:31;;;;;;;7.93;3.58;;;;;;;28.26;40.09;98971.47;4826794;29;20212;-85
2023/08/21 03:44:58;;;;;;;4.88;3.17;;;;;;;28.26;40.26;98976.88;4826882;29;20197;-84
2023/08/21 03:47:25;;;;;;;5.65;3.20;;;;;;;28.33;39.98;98976.94;4811207;29;20182;-86
2023/08/21 03:49:52;;;;;;;4.93;3.75;;;;;;;28.31;40.04;98978.97;4826854;29;20198;-85
2023/08/21 03:52:18;;;;;;;5.60;3.40;;;;;;;28.44;40.09;98979.06;4826827;29;20229;-85
2023/08/21 03:54:45;;;;;;;8.63;3.67;;;;;;;28.36;39.71;98981.91;4817262;29;20644;-85
2023/08/21 03:57:12;;;;;;;13.15;3.85;;;;;;;28.35;39.71;98981.09;4824497;29;20202;-86
2023/08/21 03:59:37;;;;;;;5.57;3.35;;;;;;;28.41;39.76;98985.69;4826614;29;20274;-85
2023/08/21 04:02:04;;;;;;;9.73;3.63;;;;;;;28.45;39.82;98986.97;4841956;29;20201;-85
2023/08/21 04:04:31;;;;;;;5.72;3.30;;;;;;;28.38;39.87;98988.75;4828874;29;20568;-85
2023/08/21 04:06:57;;;;;;;7.93;3.20;;;;;;;28.44;39.77;98987.13;4824856;29;20189;-85
2023/08/21 04:09:25;;;;;;;5.30;3.08;;;;;;;28.45;39.85;98991.50;4825099;29;20269;-84
2023/08/21 04:11:51;;;;;;;7.53;3.00;;;;;;;28.41;39.88;98991.06;4824987;29;20676;-84
2023/08/21 04:14:18;;;;;;;5.18;3.30;;;;;;;28.48;39.89;98997.34;4825253;29;20181;-84
2023/08/21 04:16:44;;;;;;;5.90;2.92;;;;;;;28.43;40.13;98997.09;4808446;29;20217;-85
2023/08/21 04:19:10;;;;;;;6.13;3.05;;;;;;;28.49;40.05;98993.59;4809032;29;20193;-85
2023/08/21 04:21:37;;;;;;;5.72;3.17;;;;;;;28.58;39.59;98997.84;4825706;29;20194;-85
2023/08/21 04:24:04;;;;;;;6.93;2.97;;;;;;;28.52;40.02;98997.78;4809226;29;20185;-85
2023/08/21 04:26:30;;;;;;;6.72;3.33;;;;;;;28.51;39.90;98998.81;4810197;29;20206;-85
2023/08/21 04:28:57;;;;;;;5.95;3.15;;;;;;;28.39;40.09;98997.69;4810528;29;20277;-86
2023/08/21 04:31:24;;;;;;;6.35;3.20;;;;;;;28.43;39.95;98998.97;4826409;29;20186;-85
2023/08/21 04:33:51;;;;;;;8.55;3.15;;;;;;;28.58;39.78;98997.00;4826097;29;20226;-86
2023/08/21 04:36:17;;;;;;;7.97;3.05;;;;;;;28.71;39.48;98994.41;4826137;29;20251;-85
2023/08/21 04:38:45;;;;;;;6.18;3.08;;;;;;;28.88;39.22;98993.00;4825856;29;20707;-85
2023/08/21 04:41:11;;;;;;;6.35;2.90;;;;;;;28.98;38.83;98990.78;4826505;29;20181;-86
2023/08/21 04:43:38;;;;;;;5.03;3.25;;;;;;;28.94;38.86;98991.38;4826163;29;20178;-84
2023/08/21 04:46:05;;;;;;;5.32;3.05;;;;;;;29.02;38.87;98994.75;4825896;29;20189;-85
2023/08/21 04:48:32;;;;;;;5.65;3.47;;;;;;;29.18;39.17;98998.97;4825866;29;20636;-85
2023/08/21 04:50:58;;;;;;;4.88;3.03;;;;;;;29.24;38.82;98998.19;4826035;29;20238;-87
2023/08/21 04:53:25;;;;;;;7.18;3.78;;;;;;;29.37;38.17;98992.84;4825547;29;20231;-87
2023/08/21 04:55:52;;;;;;;6.97;2.90;;;;;;;29.50;38.49;99000.97;4825505;29;20205;-87
2023/08/21 04:58:19;;;;;;;5.57;2.90;;;;;;;29.66;37.88;99005.16;4825716;29;20227;-85
2023/08/21 05:00:46;;;;;;;5.45;2.42;;;;;;;29.72;38.18;98999.75;4826706;29;20265;-83
2023/08/21 05:03:12;;;;;;;6.30;3.22;;;;;;;29.77;37.88;98999.94;4832613;29;20573;-83
2023/08/21 05:05:38;;;;;;;5.07;3.22;;;;;;;29.74;37.87;99002.25;4827830;29;20193;-83
2023/08/21 05:08:06;;;;;;;5.63;2.90;;;;;;;29.83;37.86;99004.56;4839980;29;20196;-83
2023/08/21 05:10:34;;;;;;;4.47;2.53;;;;;;;30.17;37.32;98998.13;4833488;29;20557;-83
2023/08/21 05:12:59;;;;;;;6.68;3.08;;;;;;;30.37;36.68;99001.66;4825663;29;20186;-83
2023/08/21 05:15:25;;;;;;;6.40;2.80;;;;;;;30.38;36.55;98995.22;4825245;29;20196;-83
2023/08/21 05:17:51;;;;;;;4.80;2.90;;;;;;;30.57;36.56;99001.66;4809350;29;20205;-83
2023/08/21 05:20:18;;;;;;;5.15;2.90;;;;;;;30.73;36.28;99001.19;4825173;29;20185;-83
2023/08/21 05:22:45;;;;;;;5.25;2.70;;;;;;;30.70;36.66;99003.47;4825136;29;20667;-83
2023/08/21 05:25:10;;;;;;;5.30;3.10;;;;;;;30.80;36.23;99015.53;4824616;29;20571;-83
2023/08/21 05:27:37;;;;;;;5.20;3.13;;;;;;;30.75;36.19;99012.63;4808722;29;20649;-83
2023/08/21 05:30:04;;;;;;;9.60;2.85;;;;;;;30.75;36.44;99009.91;4825106;29;20181;-83
2023/08/21 05:32:31;;;;;;;5.80;2.78;;;;;;;30.71;36.22;99011.41;4825872;29;20186;-83
2023/08/21 05:34:58;;;;;;;5.22;2.88;;;;;;;30.85;36.13;99012.16;4842065;29;20255;-83
2023/08/21 05:37:26;;;;;;;8.02;3.10;;;;;;;30.96;35.88;99009.69;4815404;29;20228;-83
2023/08/21 05:39:53;;;;;;;7.30;3.00;;;;;;;31.07;36.21;99012.75;4807717;29;20197;-83
2023/08/21 05:42:21;;;;;;;5.72;3.00;;;;;;;31.14;36.27;99013.56;4823653;29;20625;-83
2023/08/21 05:44:47;;;;;;;5.45;3.13;;;;;;;31.06;36.04;99011.09;4824473;29;20186;-83
2023/08/21 05:47:14;;;;;;;5.57;3.00;;;;;;;31.19;35.57;99011.03;4808317;29;20185;-83
2023/08/21 05:49:39;;;;;;;4.50;2.42;;;;;;;31.22;35.48;99008.72;4818070;29;20193;-83
2023/08/21 05:52:06;;;;;;;6.13;2.67;;;;;;;31.13;35.47;99011.91;4851826;29;20189;-85
2023/08/21 05:54:32;;;;;;;6.60;2.58;;;;;;;31.21;35.32;99014.38;4825155;29;20604;-83
2023/08/21 05:56:58;;;;;;;8.95;2.85;;;;;;;31.38;35.47;99015.53;4824636;29;20723;-83
2023/08/21 05:59:32;;;;;;;8.00;2.45;;;;;;;31.37;35.39;99008.44;4824832;29;20522;-83
2023/08/21 06:01:57;;;;;;;4.63;2.85;;;;;;;31.17;35.40;99007.72;4808496;29;20629;-84
2023/08/21 06:04:24;;;;;;;7.05;3.03;;;;;;;31.24;35.40;99009.34;4824553;29;20203;-83
2023/08/21 06:06:49;;;;;;;13.30;3.35;;;;;;;31.31;34.94;99014.75;4842928;29;20661;-83
2023/08/21 06:09:17;;;;;;;7.13;2.88;;;;;;;31.53;35.43;99007.97;4832230;29;20668;-83
2023/08/21 06:11:43;;;;;;;4.22;2.53;;;;;;;31.63;35.10;99006.44;4824503;29;20201;-82
2023/08/21 06:14:08;;;;;;;6.72;2.95;;;;;;;31.80;34.50;99014.03;4824677;29;20213;-83
2023/08/21 06:16:34;;;;;;;5.07;2.55;;;;;;;31.64;34.65;99015.41;4824355;29;20682;-83
2023/08/21 06:19:00;;;;;;;6.93;2.53;;;;;;;31.77;34.61;99014.47;4824779;29;20272;-83
2023/08/21 06:21:25;;;;;;;5.97;2.58;;;;;;;31.98;33.79;99017.66;4808039;29;20721;-83
2023/08/21 06:23:51;;;;;;;6.35;2.20;;;;;;;31.99;34.03;99022.06;4836954;29;20189;-84
2023/08/21 06:26:16;;;;;;;6.22;2.80;;;;;;;31.96;33.87;99022.47;4808664;29;20185;-85
2023/08/21 06:28:42;;;;;;;6.30;2.78;;;;;;;32.22;33.69;99019.59;4808461;29;20232;-85
2023/08/21 06:31:08;;;;;;;6.75;3.00;;;;;;;32.49;33.19;99014.75;4808046;29;20207;-83
2023/08/21 06:33:34;;;;;;;7.10;2.90;;;;;;;32.56;32.61;99023.69;4823968;29;20265;-86
2023/08/21 06:35:59;;;;;;;4.47;2.67;;;;;;;32.68;32.94;99030.03;4808723;29;20292;-84
2023/08/21 06:38:25;;;;;;;6.80;2.25;;;;;;;33.03;32.32;99021.28;4808312;29;20671;-84
2023/08/21 06:40:50;;;;;;;3.95;2.42;;;;;;;32.57;31.81;99021.81;4824219;29;20645;-85
2023/08/21 06:43:17;;;;;;;9.25;3.00;;;;;;;32.88;32.00;99024.38;4807941;29;20200;-84
2023/08/21 06:45:42;;;;;;;5.00;2.95;;;;;;;33.33;31.86;99022.19;4807726;29;20197;-85
2023/08/21 06:48:10;;;;;;;5.55;2.80;;;;;;;33.21;31.20;99030.28;4823296;29;20554;-87
2023/08/21 06:50:37;;;;;;;6.78;2.92;;;;;;;33.50;31.48;99019.66;4809711;29;20685;-84
2023/08/21 06:53:04;;;;;;;6.60;2.88;;;;;;;33.78;31.20;99022.63;4832241;29;20257;-84
2023/08/21 06:55:29;;;;;;;6.90;2.42;;;;;;;34.10;30.28;99023.19;4807607;29;20290;-86
2023/08/21 06:57:54;;;;;;;4.35;2.45;;;;;;;34.33;29.78;99020.50;4822754;29;20330;-85
2023/08/21 07:00:20;;;;;;;5.57;2.63;;;;;;;34.57;29.79;99025.72;4806764;29;20570;-85
2023/08/21 07:02:45;;;;;;;4.43;2.45;;;;;;;34.71;29.42;99031.75;4839353;29;20197;-86
2023/08/21 07:05:11;;;;;;;4.60;2.47;;;;;;;34.87;29.50;99027.47;4824322;29;20677;-85
2023/08/21 07:07:36;;;;;;;5.95;2.33;;;;;;;34.45;29.19;99027.59;4853920;29;20185;-86
2023/08/21 07:10:03;;;;;;;5.28;1.90;;;;;;;34.51;29.00;99029.34;4841457;29;20184;-85
2023/08/21 07:12:28;;;;;;;5.35;2.60;;;;;;;34.90;29.47;99035.19;4834789;29;20300;-84
2023/08/21 07:14:54;;;;;;;5.53;2.28;;;;;;;34.75;29.37;99026.69;4804647;29;20189;-85
2023/08/21 07:17:19;;;;;;;4.82;2.40;;;;;;;34.78;28.96;99020.72;4820705;29;20221;-87
2023/08/21 07:19:45;;;;;;;5.30;2.40;;;;;;;34.93;28.70;99027.34;4826754;29;20190;-84
2023/08/21 07:22:10;;;;;;;5.03;2.60;;;;;;;35.35;28.63;99030.72;4822451;29;20629;-85
2023/08/21 07:24:35;;;;;;;5.82;2.20;;;;;;;35.64;27.96;99026.13;4823410;29;20186;-87
2023/08/21 07:27:01;;;;;;;5.55;2.33;;;;;;;35.89;27.39;99018.38;4808258;29;20681;-85
2023/08/21 07:29:26;;;;;;;6.90;2.55;;;;;;;35.79;27.64;99026.38;4818308;29;20264;-86
2023/08/21 07:31:52;;;;;;;7.70;2.58;;;;;;;35.63;28.28;99025.28;4826427;29;20691;-85
2023/08/21 07:34:17;;;;;;;6.15;2.38;;;;;;;35.97;27.46;99019.88;4842113;29;20656;-85
2023/08/21 07:36:42;;;;;;;5.22;2.55;;;;;;;36.03;27.88;99018.94;4842684;29;20201;-85
2023/08/21 07:39:09;;;;;;;5.32;2.53;;;;;;;36.07;28.21;99017.34;4842008;29;20201;-85
2023/08/21 07:41:37;;;;;;;9.18;2.53;;;;;;;36.35;29.01;99020.81;4825236;29;20189;-84
2023/08/21 07:44:02;;;;;;;4.20;2.33;;;;;;;36.76;27.35;99019.53;4824216;29;20689;-86
2023/08/21 07:46:28;;;;;;;4.15;2.40;;;;;;;36.93;27.36;99014.84;4840270;29;20264;-88
2023/08/21 07:48:54;;;;;;;7.38;3.08;;;;;;;37.16;27.17;99015.72;4824094;29;20212;-85
2023/08/21 07:51:19;;;;;;;5.43;2.80;;;;;;;37.26;27.31;99010.38;4840064;29;20254;-85
2023/08/21 07:53:45;;;;;;;10.50;2.90;;;;;;;37.36;26.48;99003.09;4840247;29;20245;-85
2023/08/21 07:56:11;;;;;;;5.50;2.63;;;;;;;37.62;26.27;99006.97;4841615;29;20571;-87
2023/08/21 07:58:37;;;;;;;5.95;2.72;;;;;;;37.73;27.16;98999.69;4827371;29;20201;-87
2023/08/21 08:01:04;;;;;;;5.78;2.72;;;;;;;37.88;25.58;99003.41;4829080;29;20193;-85
2023/08/21 08:03:30;;;;;;;5.88;2.53;;;;;;;38.07;26.20;98993.72;4829437;29;20570;-85
2023/08/21 08:05:55;;;;;;;7.18;3.00;;;;;;;38.13;25.35;99003.63;4845094;29;20188;-86
2023/08/21 08:08:21;;;;;;;9.48;2.83;;;;;;;37.96;25.26;99002.94;4829083;29;20185;-87
2023/08/21 08:10:46;;;;;;;7.30;2.90;;;;;;;37.55;25.44;99007.16;4829501;29;20272;-85
2023/08/21 08:13:11;;;;;;;10.13;2.50;;;;;;;37.97;25.37;99006.50;4845100;29;20522;-84
2023/08/21 08:15:38;;;;;;;6.78;2.55;;;;;;;38.29;24.46;99001.00;4845013;29;20185;-87
2023/08/21 08:18:04;;;;;;;4.55;2.55;;;;;;;38.27;23.96;99005.91;4829035;29;20193;-86
2023/08/21 08:20:30;;;;;;;5.78;2.03;;;;;;;38.62;24.10;99011.66;4844867;29;20220;-85
2023/08/21 08:22:56;;;;;;;4.22;2.28;;;;;;;38.98;23.85;99004.47;4845198;29;20215;-86
2023/08/21 08:25:22;;;;;;;4.95;2.20;;;;;;;39.12;23.30;98997.41;4844931;29;20177;-85
2023/08/21 08:27:47;;;;;;;5.45;2.00;;;;;;;39.07;22.91;99003.72;4845392;29;20173;-85
2023/08/21 08:30:13;;;;;;;8.05;1.90;;;;;;;39.17;23.19;98991.94;4844974;29;20659;-84
2023/08/21 08:32:40;;;;;;;2.97;1.50;;;;;;;39.41;23.08;98993.16;4844814;29;20517;-85
2023/08/21 08:35:07;;;;;;;5.28;2.03;;;;;;;39.64;22.30;98991.84;4844659;29;20204;-85
2023/08/21 08:37:32;;;;;;;3.67;1.88;;;;;;;39.77;22.59;98991.31;4844630;29;20202;-85
2023/08/21 08:39:58;;;;;;;6.15;2.15;;;;;;;39.67;22.39;98988.56;4844687;29;20169;-85
2023/08/21 08:42:23;;;;;;;3.97;2.25;;;;;;;39.96;22.74;98981.44;4844598;29;20688;-85
2023/08/21 08:44:49;;;;;;;5.68;1.88;;;;;;;40.07;22.14;98985.84;4844811;29;20615;-86
2023/08/21 08:47:17;;;;;;;4.82;1.70;;;;;;;39.96;21.30;98989.69;4844870;29;20173;-85
2023/08/21 08:49:43;;;;;;;7.28;2.25;;;;;;;40.20;21.25;98985.28;4826069;29;20197;-85
2023/08/21 08:52:09;;;;;;;6.38;2.13;;;;;;;40.02;21.60;98983.06;4844219;29;20606;-85
2023/08/21 08:54:37;;;;;;;4.00;1.98;;;;;;;40.20;22.24;98985.28;4844208;29;20652;-85
2023/08/21 08:57:03;;;;;;;4.00;2.40;;;;;;;40.49;21.62;98978.13;4828054;29;20208;-85
2023/08/21 08:59:31;;;;;;;5.60;1.92;;;;;;;40.46;21.31;98962.16;4844191;29;20173;-85
2023/08/21 09:01:56;;;;;;;4.30;2.38;;;;;;;40.44;20.71;98969.88;4827965;29;20584;-86
2023/08/21 09:04:23;;;;;;;6.85;2.20;;;;;;;40.41;21.23;98975.91;4827945;29;20197;-85
2023/08/21 09:06:48;;;;;;;4.85;1.90;;;;;;;40.72;22.08;98965.72;4844299;29;20196;-85
2023/08/21 09:09:13;;;;;;;4.60;1.85;;;;;;;40.66;20.17;98971.50;4829230;29;20182;-86
2023/08/21 09:11:44;;;;;;;6.88;2.00;;;;;;;40.66;19.02;98963.25;4825235;29;20560;-86
2023/08/21 09:14:10;;;;;;;3.00;1.52;;;;;;;40.77;19.90;98968.44;4833936;29;20193;-85
2023/08/21 09:16:35;;;;;;;4.45;2.03;;;;;;;41.05;19.96;98964.22;4827673;29;20208;-86
2023/08/21 09:19:00;;;;;;;4.38;1.50;;;;;;;41.41;19.21;98951.09;4843823;29;20528;-85
2023/08/21 09:21:28;;;;;;;3.97;1.73;;;;;;;41.67;18.51;98952.56;4844144;29;20664;-85
2023/08/21 09:24:02;;;;;;;3.60;1.80;;;;;;;41.32;19.14;98959.16;4827898;29;20178;-86
2023/08/21 09:26:31;;;;;;;3.38;1.35;;;;;;;41.33;18.63;98954.47;4827500;29;20256;-86
2023/08/21 09:28:59;;;;;;;6.28;1.70;;;;;;;41.43;18.92;98948.91;4843689;29;20216;-85
2023/08/21 09:31:30;;;;;;;4.20;1.40;;;;;;;41.05;18.75;98948.53;4843659;29;20180;-85
2023/08/21 09:33:57;;;;;;;3.10;1.60;;;;;;;41.51;18.39;98943.59;4827313;29;20201;-86
2023/08/21 09:36:24;;;;;;;4.00;1.10;;;;;;;41.90;18.06;98931.78;4827664;29;20201;-85
2023/08/21 09:38:50;;;;;;;2.00;1.00;;;;;;;42.16;18.19;98931.28;4827988;29;20261;-86
2023/08/21 09:41:19;;;;;;;3.28;1.38;;;;;;;42.41;18.23;98927.41;4843452;29;20185;-86
2023/08/21 09:43:45;;;;;;;2.95;1.48;;;;;;;42.39;18.26;98915.88;4827227;29;20227;-86
2023/08/21 09:46:17;;;;;;;3.63;1.40;;;;;;;42.62;17.68;98922.53;4827667;29;20595;-85
2023/08/21 09:48:47;;;;;;;4.55;1.10;;;;;;;42.85;16.84;98916.97;4843580;29;20173;-85
2023/08/21 09:51:13;;;;;;;2.15;1.13;;;;;;;42.93;16.68;98914.72;4843373;29;20173;-85
2023/08/21 09:53:40;;;;;;;3.92;1.17;;;;;;;42.60;16.49;98911.81;4843472;29;20192;-87
2023/08/21 09:56:06;;;;;;;4.30;1.23;;;;;;;42.57;16.85;98919.81;4827088;29;20204;-86
2023/08/21 09:58:31;;;;;;;2.80;0.93;;;;;;;42.19;15.34;98916.09;4827154;29;20185;-86
2023/08/21 10:00:59;;;;;;;3.03;1.33;;;;;;;42.01;15.64;98912.09;4827553;29;20712;-85
2023/08/21 10:03:25;;;;;;;3.10;0.63;;;;;;;42.45;15.55;98902.84;4850786;29;20260;-86
2023/08/21 10:05:52;;;;;;;4.70;1.33;;;;;;;42.80;16.02;98905.19;4824954;29;20819;-86
2023/08/21 10:08:24;;;;;;;3.85;1.50;;;;;;;42.26;16.45;98897.28;4829872;29;20192;-86
2023/08/21 10:10:49;;;;;;;3.15;1.23;;;;;;;42.29;16.08;98891.19;4835975;29;20265;-87
2023/08/21 10:13:16;;;;;;;4.93;1.17;;;;;;;42.19;17.36;98892.09;4824988;29;20212;-88
2023/08/21 10:15:43;;;;;;;2.15;1.10;;;;;;;42.48;16.42;98891.25;4824793;29;20653;-86
2023/08/21 10:18:30;;;;;;;3.33;1.10;;;;;;;43.05;15.94;98884.75;4825371;29;20181;-86
2023/08/21 10:20:55;;;;;;;3.83;1.77;;;;;;;43.07;16.23;98875.06;4825401;29;20196;-86
2023/08/21 10:23:31;;;;;;;5.00;1.58;;;;;;;43.03;15.44;98878.72;4842635;29;20542;-86
2023/08/21 10:26:06;;;;;;;3.15;1.45;;;;;;;42.83;16.33;98877.84;4812495;29;20271;-86
2023/08/21 10:28:50;;;;;;;4.65;1.70;;;;;;;42.57;16.73;98875.72;4826914;29;20177;-86
2023/08/21 10:31:38;;;;;;;3.45;1.40;;;;;;;42.56;16.75;98869.38;4826712;29;20186;-87
2023/08/21 10:34:08;;;;;;;4.25;1.40;;;;;;;43.03;17.61;98862.19;4842849;29;20692;-86
2023/08/21 10:36:37;;;;;;;5.05;1.20;;;;;;;43.34;16.43;98857.84;4842985;29;20234;-85
2023/08/21 10:39:04;;;;;;;3.08;1.35;;;;;;;43.27;15.65;98852.66;4827441;29;20211;-86
2023/08/21 10:41:31;;;;;;;2.58;1.10;;;;;;;43.27;16.75;98854.59;4842929;29;20192;-86
2023/08/21 10:43:58;;;;;;;2.83;1.30;;;;;;;42.68;16.58;98849.66;4842695;29;20185;-86
2023/08/21 10:46:25;;;;;;;4.00;1.65;;;;;;;42.49;16.48;98846.84;4842728;29;20632;-86
2023/08/21 10:48:51;;;;;;;3.88;1.30;;;;;;;43.10;16.67;98841.38;4826534;29;20189;-86
2023/08/21 10:51:17;;;;;;;3.53;1.92;;;;;;;43.25;16.60;98854.09;4826847;29;20236;-86
2023/08/21 10:53:45;;;;;;;5.00;1.63;;;;;;;43.29;16.06;98850.44;4826826;29;20192;-85
2023/08/21 10:56:11;;;;;;;7.70;1.83;;;;;;;42.80;17.05;98848.09;4842475;29;20244;-86
2023/08/21 10:58:51;;;;;;;10.27;1.70;;;;;;;42.84;17.95;98846.41;4826423;29;20188;-86
2023/08/21 11:01:17;;;;;;;6.50;1.52;;;;;;;43.25;16.32;98856.84;4826734;29;20636;-86
2023/08/21 11:03:51;;;;;;;3.47;1.08;;;;;;;43.33;15.71;98850.69;4842236;29;20548;-85
2023/08/21 11:06:19;;;;;;;3.78;1.35;;;;;;;43.14;15.62;98855.38;4826576;29;20181;-86
2023/08/21 11:08:46;;;;;;;3.38;1.17;;;;;;;42.98;15.88;98853.97;4842348;29;20185;-86
2023/08/21 11:11:12;;;;;;;2.70;1.42;;;;;;;42.88;15.70;98851.31;4842697;29;20189;-86
2023/08/21 11:13:39;;;;;;;4.07;1.58;;;;;;;42.73;15.77;98836.63;4843175;29;20249;-85
2023/08/21 11:16:07;;;;;;;3.45;1.75;;;;;;;42.88;16.41;98829.25;4842284;29;20668;-85
2023/08/21 11:18:35;;;;;;;2.75;1.20;;;;;;;43.07;15.48;98843.88;4842246;29;20199;-86
2023/08/21 11:21:08;;;;;;;5.88;1.88;;;;;;;42.94;15.71;98837.19;4842303;29;20185;-86
2023/08/21 11:23:37;;;;;;;5.30;1.30;;;;;;;42.37;16.18;98829.91;4842115;29;20205;-86
2023/08/21 11:26:05;;;;;;;5.53;1.70;;;;;;;42.35;15.72;98843.16;4842395;29;20177;-85
2023/08/21 11:28:31;;;;;;;2.97;1.23;;;;;;;42.30;16.17;98828.63;4842274;29;20565;-86
2023/08/21 11:30:59;;;;;;;3.78;1.20;;;;;;;42.20;15.29;98821.28;4826114;29;20624;-86
2023/08/21 11:33:28;;;;;;;1.70;0.90;;;;;;;42.14;15.54;98834.31;4827647;29;20311;-86